Pownal, Maine
Current Conditions -  °F | °C
As of 8:15 AM on Friday 24 Oct 2014 (Local Time) from KLEW Reporting Station
Overcast Overcast  
Wind Chill: 41°   Ceiling: 1400
Heat Index: 46°   Visibility: 5mi
Dew Point: 43°   Wind: 10mph
Humidity: 87%   Direction: 360°N
Pressure: 29.7"   Gusts: 21mph
Location:  43.89°N, 70.22°W
Report Text: KLEW 241215Z AUTO 36009G18KT 5SM BKN014 OVC020 08/06 A2970 RMK AO1
Loading
Personal Weather Stations






























Interactive Weather Map New forecast layout! Learn more

10-Day Weather Forecast

Advertisements
Track Severe Weather on mobile